Time;durP1;ratioP1;P1;durP2;ratioP2;P2;SDS_P1;SDS_P2;PMS_P1;PMS_P2;Temp;Humidity;BMP_temperature;BMP_pressure;BME280_temperature;BME280_humidity;BME280_pressure;Samples;Min_cycle;Max_cycle;Signal;HPM_P1;HPM_P2
2022/08/12 00:44:30;;;;;;;6.93;2.33;;;;;;;19.37;100.00;99528.37;4463785;32;20079;-70
2022/08/12 00:47:00;;;;;;;3.00;1.42;;;;;;;19.54;100.00;99561.44;4462050;32;20067;-70
2022/08/12 00:49:27;;;;;;;3.15;1.50;;;;;;;19.59;100.00;99566.84;4463435;32;20436;-70
2022/08/12 00:52:06;;;;;;;2.92;1.83;;;;;;;19.36;100.00;99527.56;4461017;32;20170;-71
2022/08/12 00:54:38;;;;;;;1.60;1.48;;;;;;;19.37;100.00;99517.47;4463567;32;20037;-70
2022/08/12 00:57:09;;;;;;;3.03;1.20;;;;;;;19.40;100.00;99530.53;4463429;32;20044;-70
2022/08/12 00:59:43;;;;;;;2.05;1.50;;;;;;;19.64;100.00;99567.84;4461056;32;20426;-72
2022/08/12 01:02:14;;;;;;;1.58;1.48;;;;;;;19.56;100.00;99548.31;4463025;32;20057;-72
2022/08/12 01:13:00;;;;;;;6.65;1.83;;;;;;;19.42;100.00;99522.88;4462046;32;20390;-71
2022/08/12 01:15:33;;;;;;;1.95;1.50;;;;;;;19.72;100.00;99551.63;4463049;32;20033;-71
2022/08/12 01:18:00;;;;;;;3.28;1.40;;;;;;;19.71;100.00;99566.37;4463021;32;20045;-72
2022/08/12 01:21:01;;;;;;;1.40;1.40;;;;;;;19.47;100.00;99549.28;4459262;32;20037;-71
2022/08/12 01:23:30;;;;;;;1.33;1.33;;;;;;;19.46;100.00;99559.37;4390083;32;20446;-71
2022/08/12 01:26:01;;;;;;;1.55;1.45;;;;;;;19.18;100.00;99531.94;4413254;32;20421;-71
2022/08/12 01:28:30;;;;;;;1.70;1.60;;;;;;;19.29;100.00;99512.66;4414436;32;20076;-71
2022/08/12 01:31:01;;;;;;;4.68;2.03;;;;;;;19.32;100.00;99553.03;4414551;32;20050;-71
2022/08/12 01:33:33;;;;;;;4.53;1.75;;;;;;;19.08;100.00;99553.91;4412397;32;20046;-71
2022/08/12 01:36:02;;;;;;;1.65;1.55;;;;;;;19.36;100.00;99549.41;4413057;32;20047;-71
2022/08/12 01:38:34;;;;;;;1.60;1.50;;;;;;;19.27;100.00;99550.38;4414441;32;20056;-70
2022/08/12 01:41:03;;;;;;;1.92;1.60;;;;;;;19.44;100.00;99549.88;4414554;32;20064;-71
2022/08/12 01:43:30;;;;;;;2.65;2.10;;;;;;;19.30;100.00;99506.13;4413312;32;20027;-71
2022/08/12 01:46:08;;;;;;;4.28;2.08;;;;;;;19.48;100.00;99546.25;4413943;32;20042;-70
2022/08/12 01:48:48;;;;;;;1.90;1.80;;;;;;;19.43;100.00;99538.13;4413658;32;20039;-70
2022/08/12 01:51:39;;;;;;;12.57;1.60;;;;;;;19.36;100.00;99532.25;4412064;32;20027;-71
2022/08/12 01:54:12;;;;;;;1.70;1.58;;;;;;;19.33;100.00;99532.81;4429293;32;20186;-70
2022/08/12 01:56:55;;;;;;;4.28;1.70;;;;;;;19.36;100.00;99526.78;4461319;32;20037;-70
2022/08/12 01:59:45;;;;;;;1.85;1.67;;;;;;;19.19;100.00;99500.81;4465679;32;20041;-70
2022/08/12 02:02:20;;;;;;;3.10;1.87;;;;;;;19.00;100.00;99448.12;4461148;32;20044;-71
2022/08/12 02:11:17;;;;;;;1.65;1.55;;;;;;;19.38;100.00;99517.16;4448348;32;20075;-71
2022/08/12 02:13:43;;;;;;;2.45;1.58;;;;;;;19.38;100.00;99522.63;4449934;32;20030;-71
2022/08/12 02:16:38;;;;;;;2.28;2.17;;;;;;;19.39;100.00;99516.06;4448983;32;20038;-71
2022/08/12 02:19:27;;;;;;;2.65;1.87;;;;;;;19.41;100.00;99519.31;4465432;32;20363;-71
2022/08/12 02:22:27;;;;;;;3.42;2.50;;;;;;;19.40;100.00;99516.88;4463982;32;20068;-71
2022/08/12 02:25:14;;;;;;;3.95;2.00;;;;;;;19.27;100.00;99490.31;4432336;32;20420;-72
2022/08/12 02:27:52;;;;;;;2.40;2.20;;;;;;;19.34;100.00;99505.22;4430174;32;20071;-71
2022/08/12 02:30:22;;;;;;;4.95;2.10;;;;;;;19.04;100.00;99446.44;4432067;32;20394;-72
2022/08/12 02:32:51;;;;;;;4.25;2.05;;;;;;;19.44;100.00;99501.53;4430612;32;20030;-70
2022/08/12 02:35:21;;;;;;;3.08;1.70;;;;;;;19.32;100.00;99487.50;4432597;32;20364;-71
2022/08/12 02:37:51;;;;;;;2.97;1.85;;;;;;;19.29;100.00;99493.56;4431628;32;20514;-71
2022/08/12 02:40:19;;;;;;;2.42;1.65;;;;;;;19.17;100.00;99483.91;4432056;32;20103;-71
2022/08/12 02:43:24;;;;;;;2.08;1.92;;;;;;;18.98;100.00;99447.63;4430632;32;20081;-70
2022/08/12 02:46:31;;;;;;;2.28;2.10;;;;;;;19.14;100.00;99475.50;4400352;32;20035;-70
2022/08/12 02:49:03;;;;;;;3.33;2.10;;;;;;;19.03;100.00;99480.28;4391937;32;20420;-71
2022/08/12 02:51:37;;;;;;;2.87;2.15;;;;;;;18.89;100.00;99458.41;4406215;32;20058;-70
2022/08/12 02:54:04;;;;;;;2.25;2.15;;;;;;;18.98;100.00;99488.56;4411187;32;20093;-69
2022/08/12 02:56:36;;;;;;;2.03;1.92;;;;;;;18.80;100.00;99471.84;4422284;32;20097;-69
2022/08/12 02:59:03;;;;;;;2.73;2.50;;;;;;;18.69;100.00;99475.81;4423887;32;20114;-69
2022/08/12 03:01:32;;;;;;;4.00;2.25;;;;;;;18.70;100.00;99466.53;4410146;32;20975;-68
2022/08/12 03:04:01;;;;;;;2.40;2.30;;;;;;;18.57;100.00;99431.78;4407470;32;20360;-70
2022/08/12 03:06:36;;;;;;;2.20;1.80;;;;;;;18.74;100.00;99473.03;4409734;32;20118;-71
2022/08/12 03:09:05;;;;;;;2.60;2.15;;;;;;;18.57;100.00;99434.53;4410385;32;20463;-71
2022/08/12 03:11:38;;;;;;;4.53;2.10;;;;;;;18.41;100.00;99418.38;4409929;32;20026;-69
2022/08/12 03:14:12;;;;;;;2.10;2.00;;;;;;;18.69;100.00;99459.47;4404695;32;20047;-69
2022/08/12 03:16:39;;;;;;;2.58;2.37;;;;;;;18.56;100.00;99438.38;4402904;32;20154;-70
2022/08/12 03:19:06;;;;;;;3.47;2.20;;;;;;;18.68;100.00;99458.66;4422657;32;20175;-70
2022/08/12 03:21:36;;;;;;;2.15;2.05;;;;;;;18.63;100.00;99452.44;4423071;32;20027;-70
2022/08/12 03:24:05;;;;;;;2.55;2.35;;;;;;;18.63;100.00;99444.25;4421811;32;20377;-72
2022/08/12 03:26:35;;;;;;;3.45;2.62;;;;;;;18.83;100.00;99482.19;4416963;32;20398;-72
2022/08/12 03:29:05;;;;;;;5.65;2.30;;;;;;;18.69;100.00;99471.16;4415200;32;20366;-72
2022/08/12 03:31:32;;;;;;;4.65;2.22;;;;;;;18.49;100.00;99483.16;4416856;32;20043;-72
2022/08/12 03:34:01;;;;;;;2.80;2.17;;;;;;;18.68;100.00;99493.28;4436531;32;20386;-72
2022/08/12 03:36:33;;;;;;;3.33;2.45;;;;;;;18.70;100.00;99488.38;4444694;32;20034;-72
2022/08/12 03:39:20;;;;;;;8.50;2.40;;;;;;;18.48;100.00;99459.72;4446519;32;20082;-72
2022/08/12 03:41:47;;;;;;;4.18;2.22;;;;;;;18.69;100.00;99494.91;4446157;32;20077;-70
2022/08/12 04:01:14;;;;;;;4.65;2.83;;;;;;;18.92;100.00;99478.81;4462467;32;20037;-71
2022/08/12 04:03:53;;;;;;;3.85;2.90;;;;;;;18.68;100.00;99452.37;4461870;32;20055;-70
2022/08/12 04:06:27;;;;;;;8.25;2.83;;;;;;;18.77;100.00;99477.88;4461991;32;20053;-71
2022/08/12 04:08:57;;;;;;;5.00;2.70;;;;;;;18.57;100.00;99472.69;4463559;32;20034;-71
2022/08/12 04:14:24;;;;;;;2.75;2.22;;;;;;;18.56;100.00;99471.09;4462771;32;20169;-71
2022/08/12 04:16:50;;;;;;;2.62;2.35;;;;;;;18.69;100.00;99475.81;4463228;32;20056;-70
2022/08/12 04:19:18;;;;;;;6.43;3.28;;;;;;;18.93;100.00;99505.00;4462947;32;20071;-71
2022/08/12 04:21:45;;;;;;;2.28;1.80;;;;;;;18.98;100.00;99499.47;4460370;32;20033;-72
2022/08/12 04:24:12;;;;;;;7.75;2.20;;;;;;;18.88;100.00;99473.94;4463090;32;20049;-72
2022/08/12 04:26:39;;;;;;;6.03;2.05;;;;;;;19.22;100.00;99504.84;4463420;32;20344;-72
2022/08/12 04:29:06;;;;;;;2.05;1.85;;;;;;;19.23;100.00;99501.84;4463692;32;20068;-72
2022/08/12 04:31:42;;;;;;;2.50;2.30;;;;;;;19.05;100.00;99480.81;4462535;32;20045;-72
2022/08/12 04:34:13;;;;;;;4.05;2.10;;;;;;;19.04;100.00;99481.94;4461921;32;20045;-72
2022/08/12 04:36:40;;;;;;;3.08;2.65;;;;;;;19.34;100.00;99507.16;4463030;32;20049;-72
2022/08/12 04:39:09;;;;;;;3.80;1.65;;;;;;;19.35;100.00;99504.13;4459829;32;20090;-72
2022/08/12 04:41:37;;;;;;;8.88;2.12;;;;;;;19.31;100.00;99502.28;4463122;32;20145;-72
2022/08/12 04:44:05;;;;;;;2.30;2.08;;;;;;;19.48;100.00;99508.03;4461405;32;20044;-72
2022/08/12 04:46:31;;;;;;;2.55;1.90;;;;;;;19.33;100.00;99472.75;4414800;32;20038;-71
2022/08/12 04:48:59;;;;;;;2.35;1.73;;;;;;;19.14;100.00;99462.66;4399238;32;20349;-71
2022/08/12 04:51:34;;;;;;;8.27;2.40;;;;;;;19.51;100.00;99501.94;4399193;32;20086;-71
2022/08/12 04:54:01;;;;;;;4.68;2.20;;;;;;;19.48;100.00;99496.28;4397514;32;20085;-71
2022/08/12 04:56:28;;;;;;;2.65;2.45;;;;;;;19.39;100.00;99498.87;4399606;32;20146;-71
2022/08/12 04:58:56;;;;;;;2.62;1.77;;;;;;;19.35;100.00;99455.00;4400329;32;20027;-72
2022/08/12 05:01:29;;;;;;;5.07;2.30;;;;;;;19.19;100.00;99473.53;4406642;32;20437;-72
2022/08/12 05:03:56;;;;;;;5.32;2.47;;;;;;;19.38;100.00;99513.63;4397074;32;20499;-72
2022/08/12 05:06:24;;;;;;;7.82;2.97;;;;;;;19.44;100.00;99509.72;4383477;32;20070;-71
2022/08/12 05:08:53;;;;;;;4.30;2.22;;;;;;;19.22;100.00;99499.41;4384236;32;20338;-71
2022/08/12 05:11:22;;;;;;;6.18;2.87;;;;;;;19.01;100.00;99419.75;4384241;32;20047;-72
2022/08/12 05:13:50;;;;;;;6.07;2.05;;;;;;;19.16;100.00;99467.81;4378456;32;20065;-73
2022/08/12 05:16:16;;;;;;;10.63;2.80;;;;;;;19.19;100.00;99510.91;4345720;33;20071;-71
2022/08/12 05:18:42;;;;;;;4.53;3.00;;;;;;;18.93;100.00;99467.63;4350347;33;20122;-72
2022/08/12 05:21:09;;;;;;;12.05;2.60;;;;;;;19.31;100.00;99488.63;4354135;33;20058;-71
2022/08/12 05:23:37;;;;;;;7.30;2.53;;;;;;;18.90;100.00;99408.19;4358063;32;20035;-73
2022/08/12 05:26:03;;;;;;;7.40;2.60;;;;;;;19.35;100.00;99468.63;4368118;32;20044;-70
2022/08/12 05:28:31;;;;;;;7.28;2.80;;;;;;;19.52;100.00;99498.13;4369032;32;20089;-70
2022/08/12 05:31:00;;;;;;;7.07;2.80;;;;;;;19.00;100.00;99450.88;4371660;32;20460;-70
2022/08/12 05:33:36;;;;;;;4.05;2.47;;;;;;;18.85;100.00;99446.44;4369092;32;20043;-70
2022/08/12 05:36:13;;;;;;;7.45;3.05;;;;;;;19.43;100.00;99508.09;4369503;32;20073;-71
2022/08/12 05:38:57;;;;;;;2.80;2.20;;;;;;;19.36;100.00;99499.47;4401234;32;20102;-70
2022/08/12 05:41:30;;;;;;;7.45;2.67;;;;;;;19.49;100.00;99493.25;4398345;32;20439;-70
2022/08/12 05:44:03;;;;;;;7.93;2.62;;;;;;;19.38;100.00;99459.03;4391735;32;20047;-70
2022/08/12 05:46:31;;;;;;;2.75;2.45;;;;;;;19.46;100.00;99457.53;4400735;32;20436;-70
2022/08/12 05:48:59;;;;;;;6.18;3.67;;;;;;;19.79;100.00;99502.09;4409306;32;20030;-70
2022/08/12 05:51:30;;;;;;;4.20;2.90;;;;;;;19.82;100.00;99485.09;4407091;32;20100;-71
2022/08/12 05:53:57;;;;;;;7.40;3.30;;;;;;;19.98;100.00;99488.38;4428696;32;20042;-71
2022/08/12 05:56:27;;;;;;;5.15;3.05;;;;;;;19.95;100.00;99497.16;4431022;32;20317;-71
2022/08/12 05:58:56;;;;;;;9.75;3.15;;;;;;;20.20;100.00;99495.06;4428433;32;20022;-72
2022/08/12 06:01:24;;;;;;;3.53;3.20;;;;;;;20.13;100.00;99493.53;4417395;32;20109;-70
2022/08/12 06:03:51;;;;;;;3.03;2.50;;;;;;;20.22;100.00;99498.31;4421041;32;20087;-70
2022/08/12 06:06:23;;;;;;;8.88;2.87;;;;;;;20.30;100.00;99501.16;4430491;32;20321;-70
2022/08/12 06:08:56;;;;;;;4.53;3.20;;;;;;;20.30;100.00;99462.88;4434145;32;20115;-70
2022/08/12 06:11:25;;;;;;;7.60;3.10;;;;;;;20.61;100.00;99497.00;4432596;32;20039;-71
2022/08/12 06:13:57;;;;;;;7.62;2.95;;;;;;;20.77;100.00;99503.00;4427114;32;20034;-71
2022/08/12 06:16:24;;;;;;;6.40;3.10;;;;;;;20.74;100.00;99500.88;4417826;32;20038;-71
2022/08/12 06:18:51;;;;;;;4.68;2.87;;;;;;;20.94;100.00;99508.63;4412691;32;20042;-71
2022/08/12 06:21:22;;;;;;;3.50;2.87;;;;;;;20.91;100.00;99476.41;4415498;32;20104;-71
2022/08/12 06:23:50;;;;;;;6.25;2.87;;;;;;;21.32;100.00;99508.34;4411778;32;20384;-70
2022/08/12 06:26:19;;;;;;;9.32;3.20;;;;;;;21.50;100.00;99503.03;4412216;32;20042;-70
2022/08/12 06:28:50;;;;;;;4.97;3.25;;;;;;;20.87;100.00;99420.69;4400417;32;20037;-70
2022/08/12 06:31:23;;;;;;;2.80;2.60;;;;;;;21.53;100.00;99513.37;4401012;32;20100;-71
2022/08/12 06:33:49;;;;;;;6.95;4.62;;;;;;;21.53;100.00;99505.94;4400276;32;20057;-70
2022/08/12 06:36:17;;;;;;;3.10;2.90;;;;;;;21.53;100.00;99497.72;4400106;32;20061;-72
2022/08/12 06:38:46;;;;;;;4.10;3.05;;;;;;;21.26;100.00;99493.16;4399282;32;20053;-71
2022/08/12 06:43:58;;;;;;;4.65;2.62;;;;;;;21.59;100.00;99495.69;4399697;32;20118;-71
2022/08/12 06:46:27;;;;;;;5.47;2.70;;;;;;;21.30;100.00;99422.94;4389514;32;20480;-71
2022/08/12 06:48:57;;;;;;;2.92;2.35;;;;;;;21.58;100.00;99461.19;4391586;32;20027;-71
2022/08/12 06:51:29;;;;;;;6.68;2.35;;;;;;;21.33;100.00;99416.84;4415393;32;20067;-70
2022/08/12 06:53:58;;;;;;;2.78;2.50;;;;;;;21.99;100.00;99493.03;4407680;32;20222;-70
2022/08/12 06:56:29;;;;;;;4.25;2.20;;;;;;;21.99;100.00;99490.28;4385460;32;20057;-73
2022/08/12 06:58:57;;;;;;;7.57;2.83;;;;;;;21.77;100.00;99497.41;4382841;32;20459;-71
2022/08/12 07:01:24;;;;;;;6.47;3.42;;;;;;;21.77;100.00;99496.59;4341147;33;20052;-71
2022/08/12 07:03:52;;;;;;;13.02;2.40;;;;;;;21.93;100.00;99494.28;4339260;33;21500;-71
2022/08/12 07:06:18;;;;;;;5.80;2.42;;;;;;;22.12;100.00;99491.31;4340534;33;20382;-71
2022/08/12 07:08:44;;;;;;;3.80;2.50;;;;;;;21.91;100.00;99474.59;4324702;33;20036;-72
2022/08/12 07:11:12;;;;;;;2.33;1.95;;;;;;;22.22;100.00;99469.09;4321643;33;20066;-71
2022/08/12 07:13:44;;;;;;;13.43;2.65;;;;;;;22.56;100.00;99489.59;4326091;33;20032;-69
2022/08/12 07:16:18;;;;;;;9.73;4.32;;;;;;;22.40;100.00;99461.78;4323368;33;20384;-69
2022/08/12 07:18:49;;;;;;;6.47;2.83;;;;;;;22.71;100.00;99496.56;4332963;33;20052;-70
2022/08/12 07:21:16;;;;;;;11.80;2.75;;;;;;;22.83;100.00;99494.00;4310835;33;20097;-70
2022/08/12 07:23:42;;;;;;;17.98;2.83;;;;;;;22.80;100.00;99460.87;4311484;33;20033;-70
2022/08/12 07:26:11;;;;;;;2.37;2.17;;;;;;;22.96;100.00;99496.91;4296637;33;20172;-71
2022/08/12 07:28:40;;;;;;;7.40;2.42;;;;;;;23.11;100.00;99493.72;4295923;33;20058;-71
2022/08/12 07:31:08;;;;;;;9.13;2.80;;;;;;;23.02;100.00;99465.41;4296321;33;20490;-72
2022/08/12 07:33:37;;;;;;;4.28;3.08;;;;;;;23.06;100.00;99463.66;4296560;33;20381;-72
2022/08/12 07:36:05;;;;;;;8.32;2.60;;;;;;;23.24;100.00;99491.16;4296297;33;20041;-73
2022/08/12 07:38:41;;;;;;;2.92;2.72;;;;;;;23.14;100.00;99460.13;4293080;33;20037;-79
2022/08/12 07:41:17;;;;;;;19.27;2.70;;;;;;;23.57;100.00;99483.22;4305320;33;20046;-71
2022/08/12 07:43:47;;;;;;;2.37;2.28;;;;;;;23.55;100.00;99486.28;4297760;33;20070;-72
2022/08/12 07:46:18;;;;;;;3.90;2.12;;;;;;;23.72;100.00;99495.63;4300703;33;20049;-72
2022/08/12 07:48:48;;;;;;;2.50;2.30;;;;;;;23.89;100.00;99495.63;4345826;32;20049;-73
2022/08/12 07:51:16;;;;;;;7.22;2.42;;;;;;;23.53;100.00;99496.81;4341074;32;20036;-71
2022/08/12 07:53:42;;;;;;;3.50;2.78;;;;;;;23.49;100.00;99475.78;4353189;32;20051;-71
2022/08/12 07:56:09;;;;;;;6.70;2.80;;;;;;;23.61;100.00;99497.91;4353610;32;20063;-71
2022/08/12 07:58:38;;;;;;;2.42;2.28;;;;;;;23.62;100.00;99485.00;4385442;32;20030;-74
2022/08/12 08:01:14;;;;;;;5.22;3.08;;;;;;;23.62;100.00;99490.50;4366899;32;20345;-71
2022/08/12 08:06:30;;;;;;;3.30;2.22;;;;;;;23.74;100.00;99465.88;4350205;32;20103;-72
2022/08/12 08:08:59;;;;;;;5.10;3.10;;;;;;;23.92;100.00;99494.19;4352525;32;20211;-70
2022/08/12 08:14:11;;;;;;;2.60;2.40;;;;;;;23.74;100.00;99493.34;4370297;32;20061;-73
2022/08/12 08:16:40;;;;;;;2.47;2.35;;;;;;;24.04;100.00;99463.22;4397763;32;20142;-71
2022/08/12 08:19:07;;;;;;;4.90;2.97;;;;;;;24.35;100.00;99462.94;4353102;32;20332;-70
2022/08/12 08:21:34;;;;;;;3.28;2.95;;;;;;;24.48;100.00;99494.91;4354954;32;20515;-70
2022/08/12 08:24:13;;;;;;;2.87;2.47;;;;;;;24.30;100.00;99493.41;4345527;32;20028;-70
2022/08/12 08:26:49;;;;;;;2.55;2.37;;;;;;;24.11;100.00;99436.03;4343226;32;20081;-70
2022/08/12 08:29:17;;;;;;;4.65;3.22;;;;;;;24.40;100.00;99486.72;4350750;32;20180;-70
2022/08/12 08:31:49;;;;;;;3.62;2.85;;;;;;;24.39;100.00;99463.06;4358666;32;20412;-70
2022/08/12 08:34:25;;;;;;;2.70;1.98;;;;;;;24.62;100.00;99500.22;4355469;32;20057;-71
2022/08/12 08:36:51;;;;;;;4.80;2.80;;;;;;;24.57;100.00;99497.66;4356131;32;20417;-70
2022/08/12 08:39:21;;;;;;;2.35;2.25;;;;;;;24.75;100.00;99503.88;4347826;32;20437;-71
2022/08/12 08:44:38;;;;;;;4.80;2.92;;;;;;;24.49;100.00;99473.69;4353125;32;20039;-70
2022/08/12 08:47:06;;;;;;;12.27;3.00;;;;;;;24.47;100.00;99503.50;4303256;33;20058;-70
2022/08/12 08:49:35;;;;;;;3.12;2.33;;;;;;;24.73;100.00;99500.66;4322112;33;20062;-70
2022/08/12 08:52:03;;;;;;;2.83;2.60;;;;;;;24.58;100.00;99474.50;4326877;33;20074;-70
2022/08/12 08:54:32;;;;;;;6.00;2.87;;;;;;;24.77;100.00;99481.50;4339120;33;20040;-70
2022/08/12 08:57:00;;;;;;;8.45;2.75;;;;;;;24.84;100.00;99514.81;4323087;33;20360;-69
2022/08/12 08:59:27;;;;;;;4.95;2.45;;;;;;;25.07;100.00;99487.00;4316389;33;20032;-70
2022/08/12 09:01:54;;;;;;;3.78;3.10;;;;;;;25.10;100.00;99513.84;4318792;33;20226;-69
2022/08/12 09:04:24;;;;;;;4.57;2.37;;;;;;;24.80;100.00;99470.62;4339678;33;20191;-70
2022/08/12 09:06:55;;;;;;;3.15;2.95;;;;;;;25.18;100.00;99516.53;4353057;32;20040;-70
2022/08/12 09:09:21;;;;;;;5.80;3.35;;;;;;;25.47;100.00;99512.13;4352628;32;20389;-71
2022/08/12 09:14:33;;;;;;;3.62;2.75;;;;;;;25.54;100.00;99506.06;4346678;32;20036;-71
2022/08/12 09:17:00;;;;;;;7.35;2.25;;;;;;;25.37;100.00;99513.34;4349342;32;20040;-70
2022/08/12 09:19:28;;;;;;;5.10;2.78;;;;;;;25.42;100.00;99497.72;4392430;32;20045;-72
2022/08/12 09:21:56;;;;;;;2.83;2.45;;;;;;;25.81;100.00;99506.63;4391769;32;20077;-70
2022/08/12 09:24:22;;;;;;;2.78;2.58;;;;;;;25.39;100.00;99490.97;4393600;32;20031;-70
2022/08/12 09:26:48;;;;;;;2.90;2.62;;;;;;;25.37;100.00;99452.72;4392369;32;20072;-70
2022/08/12 09:29:19;;;;;;;4.18;2.80;;;;;;;25.70;100.00;99515.31;4416504;32;20513;-70
2022/08/12 09:31:51;;;;;;;4.65;3.10;;;;;;;25.46;100.00;99504.19;4418321;32;20093;-70
2022/08/12 09:34:18;;;;;;;3.47;2.92;;;;;;;25.15;100.00;99513.66;4419541;32;20982;-70
2022/08/12 09:36:45;;;;;;;4.87;2.80;;;;;;;24.88;100.00;99506.72;4426414;32;20034;-70
2022/08/12 09:39:12;;;;;;;4.40;2.45;;;;;;;25.26;100.00;99512.13;4430089;32;20037;-70
2022/08/12 09:41:40;;;;;;;2.90;2.50;;;;;;;25.27;100.00;99508.19;4430302;32;20371;-72
2022/08/12 09:46:52;;;;;;;4.12;2.70;;;;;;;25.73;100.00;99505.56;4417306;32;20399;-70
2022/08/12 09:49:20;;;;;;;4.78;3.37;;;;;;;25.52;100.00;99453.22;4422453;32;20406;-71
2022/08/12 09:51:47;;;;;;;2.87;2.58;;;;;;;25.59;100.00;99502.28;4404178;32;20089;-71
2022/08/12 09:54:16;;;;;;;5.43;2.70;;;;;;;25.70;100.00;99514.50;4416230;32;20041;-70
2022/08/12 09:56:44;;;;;;;2.87;2.42;;;;;;;25.72;100.00;99504.75;4411415;32;20042;-71
2022/08/12 09:59:10;;;;;;;2.83;2.62;;;;;;;25.77;100.00;99500.97;4412579;32;20027;-73
2022/08/12 10:01:39;;;;;;;3.25;2.90;;;;;;;25.88;100.00;99496.66;4412616;32;20101;-70
2022/08/12 10:04:09;;;;;;;6.20;3.03;;;;;;;26.01;100.00;99503.03;4411229;32;20081;-71
2022/08/12 10:06:40;;;;;;;12.82;2.78;;;;;;;25.80;100.00;99502.22;4410348;32;20112;-71
2022/08/12 10:09:09;;;;;;;2.83;2.62;;;;;;;25.97;100.00;99515.06;4402939;32;20091;-71
2022/08/12 10:14:21;;;;;;;10.23;2.53;;;;;;;25.95;100.00;99509.06;4412453;32;20072;-71
2022/08/12 10:16:48;;;;;;;2.83;2.58;;;;;;;26.31;100.00;99505.59;4409677;32;20539;-70
2022/08/12 10:19:17;;;;;;;3.00;2.80;;;;;;;26.37;100.00;99503.41;4389798;32;20023;-70
2022/08/12 10:21:44;;;;;;;3.12;2.83;;;;;;;26.18;100.00;99501.19;4392794;32;20482;-70
2022/08/12 10:24:14;;;;;;;4.37;2.67;;;;;;;26.08;100.00;99503.25;4425395;32;20070;-70
2022/08/12 10:29:46;;;;;;;3.00;2.37;;;;;;;26.24;100.00;99477.75;4414060;32;20757;-69
2022/08/12 10:32:20;;;;;;;2.75;2.42;;;;;;;25.49;100.00;99465.72;4424361;32;20094;-70
2022/08/12 10:34:47;;;;;;;2.75;2.55;;;;;;;25.65;100.00;99468.66;4420284;32;20054;-70
2022/08/12 10:37:13;;;;;;;6.82;2.78;;;;;;;26.13;100.00;99482.13;4415771;32;21047;-70
2022/08/12 10:39:40;;;;;;;3.83;2.30;;;;;;;25.86;100.00;99476.06;4423406;32;20038;-69
2022/08/12 10:44:59;;;;;;;3.25;2.60;;;;;;;26.09;100.00;99455.22;4422724;32;20850;-70
2022/08/12 10:47:31;;;;;;;7.30;2.92;;;;;;;26.46;100.00;99491.09;4422345;32;20045;-70
2022/08/12 10:50:00;;;;;;;7.22;2.60;;;;;;;26.21;100.00;99450.84;4425260;32;20093;-70
2022/08/12 10:52:30;;;;;;;7.60;3.75;;;;;;;26.44;100.00;99481.56;4443925;32;20090;-70
2022/08/12 10:54:58;;;;;;;3.03;2.72;;;;;;;26.74;100.00;99462.81;4463362;32;20071;-70
2022/08/12 10:57:25;;;;;;;4.30;2.67;;;;;;;26.68;100.00;99457.84;4464071;32;20034;-71
2022/08/12 10:59:58;;;;;;;2.40;2.30;;;;;;;26.90;100.00;99470.34;4463747;32;20070;-71
2022/08/12 11:02:27;;;;;;;2.92;2.70;;;;;;;26.48;100.00;99476.94;4462525;32;20045;-72
2022/08/12 11:04:57;;;;;;;11.15;3.08;;;;;;;26.33;100.00;99483.97;4464161;32;20071;-71
2022/08/12 11:07:23;;;;;;;3.50;3.00;;;;;;;25.88;100.00;99482.03;4437478;32;20336;-70
2022/08/12 11:09:49;;;;;;;3.53;2.75;;;;;;;26.21;100.00;99481.19;4430215;32;20469;-70
2022/08/12 11:12:17;;;;;;;3.45;2.75;;;;;;;26.22;100.00;99472.56;4430084;32;20042;-72
2022/08/12 11:14:43;;;;;;;6.78;2.72;;;;;;;26.29;100.00;99480.28;4440446;32;20034;-70
2022/08/12 11:17:12;;;;;;;4.43;2.83;;;;;;;26.36;100.00;99447.41;4444736;32;20302;-70
2022/08/12 11:19:41;;;;;;;8.32;2.90;;;;;;;26.34;100.00;99477.28;4439439;32;20096;-71
2022/08/12 11:22:09;;;;;;;5.07;3.03;;;;;;;25.91;100.00;99448.25;4411355;32;20099;-74
2022/08/12 11:24:35;;;;;;;2.47;2.37;;;;;;;25.73;100.00;99415.34;4414750;32;20799;-71
2022/08/12 11:27:05;;;;;;;4.93;3.10;;;;;;;26.06;100.00;99463.38;4413329;32;20379;-70
2022/08/12 11:29:32;;;;;;;4.43;2.62;;;;;;;26.41;100.00;99455.44;4389947;32;20060;-71
2022/08/12 11:31:58;;;;;;;6.25;3.03;;;;;;;26.99;100.00;99480.13;4387825;32;20080;-72
2022/08/12 11:34:25;;;;;;;3.50;2.28;;;;;;;26.55;100.00;99476.38;4389385;32;20035;-71
2022/08/12 11:37:06;;;;;;;6.47;2.92;;;;;;;26.24;100.00;99466.72;4389985;32;20061;-71
2022/08/12 11:39:33;;;;;;;2.87;2.70;;;;;;;26.21;100.00;99442.56;4406647;32;20042;-71
2022/08/12 11:42:00;;;;;;;10.43;2.62;;;;;;;26.87;100.00;99471.06;4406166;32;20060;-74
2022/08/12 11:44:26;;;;;;;3.53;2.50;;;;;;;27.41;100.00;99473.44;4405549;32;20116;-71
2022/08/12 11:46:53;;;;;;;7.05;2.83;;;;;;;27.34;100.00;99463.00;4406214;32;20035;-71
2022/08/12 11:49:22;;;;;;;2.40;2.20;;;;;;;27.42;100.00;99414.25;4387527;32;20057;-71
2022/08/12 11:51:48;;;;;;;5.37;2.60;;;;;;;27.05;100.00;99466.87;4375171;32;20027;-71
2022/08/12 11:54:15;;;;;;;2.45;2.33;;;;;;;26.80;100.00;99442.06;4387235;32;20042;-72
2022/08/12 11:56:41;;;;;;;4.43;2.30;;;;;;;26.54;100.00;99436.13;4390103;32;20154;-72
2022/08/12 11:59:07;;;;;;;2.50;2.37;;;;;;;26.49;100.00;99430.81;4392325;32;20078;-73
2022/08/12 12:01:34;;;;;;;5.72;2.37;;;;;;;26.66;100.00;99438.88;4424662;32;20049;-71
2022/08/12 12:04:00;;;;;;;5.30;2.53;;;;;;;26.50;100.00;99435.19;4429460;32;20067;-74
2022/08/12 12:06:27;;;;;;;4.40;2.47;;;;;;;26.88;100.00;99458.88;4428596;32;20341;-72
2022/08/12 12:08:53;;;;;;;7.03;2.67;;;;;;;27.07;100.00;99469.28;4429147;32;20047;-71
2022/08/12 12:11:21;;;;;;;2.95;2.75;;;;;;;27.11;100.00;99459.97;4429967;32;20063;-71
2022/08/12 12:13:47;;;;;;;2.58;2.47;;;;;;;27.53;100.00;99462.34;4428077;32;20366;-71
2022/08/12 12:16:14;;;;;;;3.95;2.45;;;;;;;27.63;100.00;99468.53;4427954;32;20038;-71
2022/08/12 12:18:41;;;;;;;4.00;2.47;;;;;;;27.57;100.00;99432.00;4422533;32;20372;-70
2022/08/12 12:21:07;;;;;;;3.10;2.85;;;;;;;27.37;100.00;99434.66;4428272;32;20049;-71
2022/08/12 12:23:35;;;;;;;2.58;2.45;;;;;;;28.02;100.00;99464.03;4451897;32;20051;-70
2022/08/12 12:26:05;;;;;;;3.25;2.97;;;;;;;28.21;100.00;99427.34;4462302;32;20053;-70
2022/08/12 12:28:32;;;;;;;4.70;2.62;;;;;;;28.60;100.00;99449.63;4460986;32;20063;-71
2022/08/12 12:30:59;;;;;;;3.17;2.90;;;;;;;27.89;100.00;99399.66;4462957;32;20066;-70
2022/08/12 12:33:26;;;;;;;6.70;3.00;;;;;;;28.05;94.92;99418.22;4460803;32;20078;-70
2022/08/12 12:35:52;;;;;;;4.57;3.45;;;;;;;27.28;99.29;99413.81;4460500;32;20059;-72
2022/08/12 12:38:19;;;;;;;4.20;3.10;;;;;;;27.60;98.56;99427.75;4427813;32;20102;-72
2022/08/12 12:40:47;;;;;;;3.60;3.15;;;;;;;27.75;100.00;99418.66;4425788;32;20038;-72
2022/08/12 12:43:14;;;;;;;4.85;2.87;;;;;;;28.20;97.89;99398.06;4427901;32;20041;-72
2022/08/12 12:45:42;;;;;;;2.67;2.58;;;;;;;27.62;97.19;99417.13;4428781;32;20554;-72
2022/08/12 12:48:10;;;;;;;8.95;2.67;;;;;;;27.38;98.20;99413.34;4429518;32;20042;-70
2022/08/12 12:50:42;;;;;;;2.33;2.12;;;;;;;27.83;96.52;99400.28;4429871;32;20034;-71
2022/08/12 12:53:09;;;;;;;2.45;1.83;;;;;;;28.55;87.86;99424.97;4425992;32;20377;-72
2022/08/12 12:55:45;;;;;;;5.47;2.80;;;;;;;28.62;82.76;99436.25;4428410;32;20023;-72
2022/08/12 12:58:15;;;;;;;2.25;2.15;;;;;;;28.51;86.88;99401.91;4429559;32;20395;-71
2022/08/12 13:00:43;;;;;;;5.37;2.20;;;;;;;28.78;89.86;99432.59;4427829;32;20033;-73
2022/08/12 13:03:11;;;;;;;2.53;2.42;;;;;;;28.74;87.35;99359.72;4427556;32;20352;-72
2022/08/12 13:05:40;;;;;;;2.50;2.40;;;;;;;29.24;83.06;99407.84;4429865;32;20424;-71
2022/08/12 13:08:23;;;;;;;2.78;2.58;;;;;;;29.25;83.71;99398.37;4428471;32;20030;-72
2022/08/12 13:10:52;;;;;;;2.87;2.67;;;;;;;28.99;85.93;99399.00;4427383;32;20045;-71
2022/08/12 13:13:19;;;;;;;10.52;2.50;;;;;;;28.49;90.70;99354.41;4414106;32;20030;-71
2022/08/12 13:15:48;;;;;;;3.28;3.08;;;;;;;28.83;88.78;99435.09;4373467;32;20129;-71
2022/08/12 13:18:16;;;;;;;3.30;3.05;;;;;;;28.91;93.09;99427.72;4383591;32;20057;-71
2022/08/12 13:20:44;;;;;;;5.47;3.17;;;;;;;27.81;100.00;99425.53;4351974;32;20053;-71